sensor_id;sensor_type;location;lat;lon;timestamp;P1;durP1;ratioP1;P2;durP2;ratioP2
77362;SDS011;66428;47.322;9.432;2024-01-16T00:02:25;9.00;;;4.50;;
77362;SDS011;66428;47.322;9.432;2024-01-16T00:04:52;9.65;;;4.70;;
77362;SDS011;66428;47.322;9.432;2024-01-16T00:07:22;12.07;;;5.18;;
77362;SDS011;66428;47.322;9.432;2024-01-16T00:09:50;9.00;;;3.92;;
77362;SDS011;66428;47.322;9.432;2024-01-16T00:12:21;9.77;;;5.05;;
77362;SDS011;66428;47.322;9.432;2024-01-16T00:14:49;14.88;;;5.22;;
77362;SDS011;66428;47.322;9.432;2024-01-16T00:17:17;10.32;;;5.13;;
77362;SDS011;66428;47.322;9.432;2024-01-16T00:19:44;11.43;;;4.47;;
77362;SDS011;66428;47.322;9.432;2024-01-16T00:22:12;9.20;;;4.55;;
77362;SDS011;66428;47.322;9.432;2024-01-16T00:24:41;8.48;;;3.90;;
77362;SDS011;66428;47.322;9.432;2024-01-16T00:27:09;11.15;;;5.00;;
77362;SDS011;66428;47.322;9.432;2024-01-16T00:29:37;11.13;;;4.22;;
77362;SDS011;66428;47.322;9.432;2024-01-16T00:32:08;13.15;;;4.40;;
77362;SDS011;66428;47.322;9.432;2024-01-16T00:34:38;9.65;;;4.20;;
77362;SDS011;66428;47.322;9.432;2024-01-16T00:37:05;9.35;;;4.25;;
77362;SDS011;66428;47.322;9.432;2024-01-16T00:39:33;15.82;;;5.78;;
77362;SDS011;66428;47.322;9.432;2024-01-16T00:42:02;10.23;;;4.85;;
77362;SDS011;66428;47.322;9.432;2024-01-16T00:44:30;10.43;;;4.53;;
77362;SDS011;66428;47.322;9.432;2024-01-16T00:46:58;8.45;;;3.88;;
77362;SDS011;66428;47.322;9.432;2024-01-16T00:49:28;8.60;;;4.15;;
77362;SDS011;66428;47.322;9.432;2024-01-16T00:51:56;9.32;;;4.75;;
77362;SDS011;66428;47.322;9.432;2024-01-16T00:54:23;16.48;;;5.30;;
77362;SDS011;66428;47.322;9.432;2024-01-16T00:56:51;16.25;;;5.13;;
77362;SDS011;66428;47.322;9.432;2024-01-16T00:59:23;9.70;;;4.55;;
77362;SDS011;66428;47.322;9.432;2024-01-16T01:01:51;12.70;;;5.13;;
77362;SDS011;66428;47.322;9.432;2024-01-16T01:04:18;13.63;;;4.93;;
77362;SDS011;66428;47.322;9.432;2024-01-16T01:06:48;10.57;;;5.15;;
77362;SDS011;66428;47.322;9.432;2024-01-16T01:09:18;9.30;;;4.95;;
77362;SDS011;66428;47.322;9.432;2024-01-16T01:11:46;10.70;;;5.22;;
77362;SDS011;66428;47.322;9.432;2024-01-16T01:14:16;15.63;;;4.82;;
77362;SDS011;66428;47.322;9.432;2024-01-16T01:16:46;9.07;;;5.20;;
77362;SDS011;66428;47.322;9.432;2024-01-16T01:19:14;11.52;;;5.35;;
77362;SDS011;66428;47.322;9.432;2024-01-16T01:21:44;11.23;;;4.97;;
77362;SDS011;66428;47.322;9.432;2024-01-16T01:24:14;13.77;;;4.53;;
77362;SDS011;66428;47.322;9.432;2024-01-16T01:26:45;11.27;;;4.40;;
77362;SDS011;66428;47.322;9.432;2024-01-16T01:29:13;10.38;;;4.95;;
77362;SDS011;66428;47.322;9.432;2024-01-16T01:31:41;11.48;;;4.75;;
77362;SDS011;66428;47.322;9.432;2024-01-16T01:34:13;9.05;;;4.47;;
77362;SDS011;66428;47.322;9.432;2024-01-16T01:36:42;9.82;;;4.28;;
77362;SDS011;66428;47.322;9.432;2024-01-16T01:39:10;11.13;;;5.05;;
77362;SDS011;66428;47.322;9.432;2024-01-16T01:41:40;10.50;;;5.00;;
77362;SDS011;66428;47.322;9.432;2024-01-16T01:44:08;9.02;;;4.72;;
77362;SDS011;66428;47.322;9.432;2024-01-16T01:46:42;9.77;;;4.43;;
77362;SDS011;66428;47.322;9.432;2024-01-16T01:49:11;14.05;;;4.78;;
77362;SDS011;66428;47.322;9.432;2024-01-16T01:51:43;8.88;;;3.63;;
77362;SDS011;66428;47.322;9.432;2024-01-16T01:54:13;7.55;;;3.75;;
77362;SDS011;66428;47.322;9.432;2024-01-16T01:56:42;9.90;;;4.63;;
77362;SDS011;66428;47.322;9.432;2024-01-16T01:59:14;9.82;;;4.47;;
77362;SDS011;66428;47.322;9.432;2024-01-16T02:01:42;8.32;;;4.00;;
77362;SDS011;66428;47.322;9.432;2024-01-16T02:04:09;8.20;;;3.83;;
77362;SDS011;66428;47.322;9.432;2024-01-16T02:06:37;7.22;;;4.03;;
77362;SDS011;66428;47.322;9.432;2024-01-16T02:09:07;10.15;;;3.92;;
77362;SDS011;66428;47.322;9.432;2024-01-16T02:11:35;9.85;;;4.30;;
77362;SDS011;66428;47.322;9.432;2024-01-16T02:14:03;10.52;;;4.07;;
77362;SDS011;66428;47.322;9.432;2024-01-16T02:16:35;8.48;;;4.18;;
77362;SDS011;66428;47.322;9.432;2024-01-16T02:19:03;9.30;;;4.47;;
77362;SDS011;66428;47.322;9.432;2024-01-16T02:21:33;8.82;;;4.20;;
77362;SDS011;66428;47.322;9.432;2024-01-16T02:24:08;7.90;;;4.32;;
77362;SDS011;66428;47.322;9.432;2024-01-16T02:26:37;8.68;;;4.35;;
77362;SDS011;66428;47.322;9.432;2024-01-16T02:29:07;10.32;;;4.15;;
77362;SDS011;66428;47.322;9.432;2024-01-16T02:31:35;8.40;;;4.25;;
77362;SDS011;66428;47.322;9.432;2024-01-16T02:34:06;7.70;;;3.97;;
77362;SDS011;66428;47.322;9.432;2024-01-16T02:36:34;8.32;;;4.05;;
77362;SDS011;66428;47.322;9.432;2024-01-16T02:39:02;10.63;;;3.78;;
77362;SDS011;66428;47.322;9.432;2024-01-16T02:41:32;8.68;;;4.30;;
77362;SDS011;66428;47.322;9.432;2024-01-16T02:44:00;7.63;;;3.83;;
77362;SDS011;66428;47.322;9.432;2024-01-16T02:46:28;11.32;;;4.85;;
77362;SDS011;66428;47.322;9.432;2024-01-16T02:48:56;11.18;;;5.85;;
77362;SDS011;66428;47.322;9.432;2024-01-16T02:51:24;9.57;;;3.80;;
77362;SDS011;66428;47.322;9.432;2024-01-16T02:53:54;9.38;;;4.03;;
77362;SDS011;66428;47.322;9.432;2024-01-16T02:56:21;10.90;;;4.70;;
77362;SDS011;66428;47.322;9.432;2024-01-16T02:58:50;7.25;;;4.60;;
77362;SDS011;66428;47.322;9.432;2024-01-16T03:01:18;10.45;;;4.50;;
77362;SDS011;66428;47.322;9.432;2024-01-16T03:03:46;8.80;;;4.38;;
77362;SDS011;66428;47.322;9.432;2024-01-16T03:06:21;9.00;;;4.35;;
77362;SDS011;66428;47.322;9.432;2024-01-16T03:08:49;6.57;;;3.63;;
77362;SDS011;66428;47.322;9.432;2024-01-16T03:11:17;9.32;;;3.92;;
77362;SDS011;66428;47.322;9.432;2024-01-16T03:13:47;7.03;;;3.45;;
77362;SDS011;66428;47.322;9.432;2024-01-16T03:16:17;9.98;;;4.53;;
77362;SDS011;66428;47.322;9.432;2024-01-16T03:18:47;9.48;;;4.05;;
77362;SDS011;66428;47.322;9.432;2024-01-16T03:21:17;7.45;;;3.60;;
77362;SDS011;66428;47.322;9.432;2024-01-16T03:23:45;12.55;;;4.10;;
77362;SDS011;66428;47.322;9.432;2024-01-16T03:26:13;8.82;;;4.03;;
77362;SDS011;66428;47.322;9.432;2024-01-16T03:28:41;14.25;;;6.25;;
77362;SDS011;66428;47.322;9.432;2024-01-16T03:31:09;12.48;;;5.57;;
77362;SDS011;66428;47.322;9.432;2024-01-16T03:33:40;10.98;;;4.60;;
77362;SDS011;66428;47.322;9.432;2024-01-16T03:36:10;9.50;;;4.72;;
77362;SDS011;66428;47.322;9.432;2024-01-16T03:38:39;10.48;;;4.38;;
77362;SDS011;66428;47.322;9.432;2024-01-16T03:41:07;9.82;;;4.63;;
77362;SDS011;66428;47.322;9.432;2024-01-16T03:43:35;13.02;;;4.32;;
77362;SDS011;66428;47.322;9.432;2024-01-16T03:46:03;8.80;;;4.68;;
77362;SDS011;66428;47.322;9.432;2024-01-16T03:48:31;9.90;;;4.22;;
77362;SDS011;66428;47.322;9.432;2024-01-16T03:51:00;6.95;;;3.53;;
77362;SDS011;66428;47.322;9.432;2024-01-16T03:53:29;9.23;;;4.05;;
77362;SDS011;66428;47.322;9.432;2024-01-16T03:55:59;10.60;;;4.10;;
77362;SDS011;66428;47.322;9.432;2024-01-16T03:58:27;9.07;;;4.47;;
77362;SDS011;66428;47.322;9.432;2024-01-16T04:00:54;8.27;;;4.28;;
77362;SDS011;66428;47.322;9.432;2024-01-16T04:03:23;12.65;;;4.53;;
77362;SDS011;66428;47.322;9.432;2024-01-16T04:05:50;10.32;;;4.63;;
77362;SDS011;66428;47.322;9.432;2024-01-16T04:08:22;11.57;;;4.95;;
77362;SDS011;66428;47.322;9.432;2024-01-16T04:10:50;7.53;;;3.65;;
77362;SDS011;66428;47.322;9.432;2024-01-16T04:13:18;6.90;;;3.90;;
77362;SDS011;66428;47.322;9.432;2024-01-16T04:15:48;7.70;;;3.90;;
77362;SDS011;66428;47.322;9.432;2024-01-16T04:18:16;9.65;;;4.28;;
77362;SDS011;66428;47.322;9.432;2024-01-16T04:20:44;9.07;;;4.07;;
77362;SDS011;66428;47.322;9.432;2024-01-16T04:23:14;7.43;;;3.88;;
77362;SDS011;66428;47.322;9.432;2024-01-16T04:25:47;9.38;;;4.18;;
77362;SDS011;66428;47.322;9.432;2024-01-16T04:28:15;10.35;;;4.50;;
77362;SDS011;66428;47.322;9.432;2024-01-16T04:30:43;9.27;;;5.00;;
77362;SDS011;66428;47.322;9.432;2024-01-16T04:33:10;10.65;;;5.10;;
77362;SDS011;66428;47.322;9.432;2024-01-16T04:35:40;11.90;;;5.97;;
77362;SDS011;66428;47.322;9.432;2024-01-16T04:38:08;12.20;;;4.95;;
77362;SDS011;66428;47.322;9.432;2024-01-16T04:40:36;14.07;;;7.15;;
77362;SDS011;66428;47.322;9.432;2024-01-16T04:43:05;13.00;;;5.32;;
77362;SDS011;66428;47.322;9.432;2024-01-16T04:45:33;9.43;;;5.10;;
77362;SDS011;66428;47.322;9.432;2024-01-16T04:48:03;13.73;;;5.78;;
77362;SDS011;66428;47.322;9.432;2024-01-16T04:50:31;10.95;;;4.95;;
77362;SDS011;66428;47.322;9.432;2024-01-16T04:52:59;11.07;;;4.47;;
77362;SDS011;66428;47.322;9.432;2024-01-16T04:55:27;16.65;;;6.20;;
77362;SDS011;66428;47.322;9.432;2024-01-16T04:57:57;10.45;;;4.85;;
77362;SDS011;66428;47.322;9.432;2024-01-16T05:00:25;11.02;;;4.68;;
77362;SDS011;66428;47.322;9.432;2024-01-16T05:02:55;11.85;;;4.53;;
77362;SDS011;66428;47.322;9.432;2024-01-16T05:05:23;7.93;;;3.90;;
77362;SDS011;66428;47.322;9.432;2024-01-16T05:08:00;10.98;;;5.05;;
77362;SDS011;66428;47.322;9.432;2024-01-16T05:10:30;10.65;;;4.38;;
77362;SDS011;66428;47.322;9.432;2024-01-16T05:13:01;9.32;;;3.97;;
77362;SDS011;66428;47.322;9.432;2024-01-16T05:15:32;9.32;;;4.35;;
77362;SDS011;66428;47.322;9.432;2024-01-16T05:18:00;8.55;;;4.47;;
77362;SDS011;66428;47.322;9.432;2024-01-16T05:20:30;11.90;;;4.85;;
77362;SDS011;66428;47.322;9.432;2024-01-16T05:22:58;7.65;;;3.58;;
77362;SDS011;66428;47.322;9.432;2024-01-16T05:25:28;8.82;;;4.30;;
77362;SDS011;66428;47.322;9.432;2024-01-16T05:27:56;11.05;;;5.10;;
77362;SDS011;66428;47.322;9.432;2024-01-16T05:30:24;13.05;;;4.90;;
77362;SDS011;66428;47.322;9.432;2024-01-16T05:32:53;12.15;;;4.28;;
77362;SDS011;66428;47.322;9.432;2024-01-16T05:35:24;9.02;;;4.13;;
77362;SDS011;66428;47.322;9.432;2024-01-16T05:37:59;9.50;;;5.80;;
77362;SDS011;66428;47.322;9.432;2024-01-16T05:40:26;9.52;;;4.68;;
77362;SDS011;66428;47.322;9.432;2024-01-16T05:42:54;10.80;;;4.03;;
77362;SDS011;66428;47.322;9.432;2024-01-16T05:45:25;9.05;;;4.50;;
77362;SDS011;66428;47.322;9.432;2024-01-16T05:47:57;9.55;;;4.63;;
77362;SDS011;66428;47.322;9.432;2024-01-16T05:50:24;10.23;;;4.55;;
77362;SDS011;66428;47.322;9.432;2024-01-16T05:52:52;11.65;;;5.07;;
77362;SDS011;66428;47.322;9.432;2024-01-16T05:55:20;11.40;;;4.20;;
77362;SDS011;66428;47.322;9.432;2024-01-16T05:57:48;12.57;;;4.75;;
77362;SDS011;66428;47.322;9.432;2024-01-16T06:00:16;10.68;;;4.65;;
77362;SDS011;66428;47.322;9.432;2024-01-16T06:02:45;11.27;;;5.30;;
77362;SDS011;66428;47.322;9.432;2024-01-16T06:05:14;12.40;;;5.40;;
77362;SDS011;66428;47.322;9.432;2024-01-16T06:07:42;13.35;;;5.80;;
77362;SDS011;66428;47.322;9.432;2024-01-16T06:10:11;10.45;;;5.05;;
77362;SDS011;66428;47.322;9.432;2024-01-16T06:12:42;12.95;;;6.43;;
77362;SDS011;66428;47.322;9.432;2024-01-16T06:15:09;14.65;;;5.68;;
77362;SDS011;66428;47.322;9.432;2024-01-16T06:17:38;10.48;;;5.38;;
77362;SDS011;66428;47.322;9.432;2024-01-16T06:20:06;9.77;;;4.10;;
77362;SDS011;66428;47.322;9.432;2024-01-16T06:22:35;12.88;;;5.30;;
77362;SDS011;66428;47.322;9.432;2024-01-16T06:25:03;20.08;;;8.10;;
77362;SDS011;66428;47.322;9.432;2024-01-16T06:27:31;14.73;;;7.68;;
77362;SDS011;66428;47.322;9.432;2024-01-16T06:29:59;17.20;;;6.40;;
77362;SDS011;66428;47.322;9.432;2024-01-16T06:32:29;12.93;;;5.20;;
77362;SDS011;66428;47.322;9.432;2024-01-16T06:34:57;15.50;;;6.30;;
77362;SDS011;66428;47.322;9.432;2024-01-16T06:37:25;23.15;;;7.97;;
77362;SDS011;66428;47.322;9.432;2024-01-16T06:39:56;13.13;;;5.88;;
77362;SDS011;66428;47.322;9.432;2024-01-16T06:42:24;15.02;;;6.28;;
77362;SDS011;66428;47.322;9.432;2024-01-16T06:44:52;12.27;;;4.85;;
77362;SDS011;66428;47.322;9.432;2024-01-16T06:47:20;12.70;;;7.13;;
77362;SDS011;66428;47.322;9.432;2024-01-16T06:49:50;10.68;;;7.18;;
77362;SDS011;66428;47.322;9.432;2024-01-16T06:52:20;11.85;;;5.47;;
77362;SDS011;66428;47.322;9.432;2024-01-16T06:54:48;9.18;;;4.10;;
77362;SDS011;66428;47.322;9.432;2024-01-16T06:57:17;10.05;;;3.97;;
77362;SDS011;66428;47.322;9.432;2024-01-16T06:59:44;11.65;;;3.75;;
77362;SDS011;66428;47.322;9.432;2024-01-16T07:02:12;10.70;;;4.45;;
77362;SDS011;66428;47.322;9.432;2024-01-16T07:04:40;7.50;;;3.45;;
77362;SDS011;66428;47.322;9.432;2024-01-16T07:07:08;11.30;;;3.70;;
77362;SDS011;66428;47.322;9.432;2024-01-16T07:09:36;8.95;;;4.38;;
77362;SDS011;66428;47.322;9.432;2024-01-16T07:12:04;8.25;;;3.97;;
77362;SDS011;66428;47.322;9.432;2024-01-16T07:14:33;8.57;;;4.07;;
77362;SDS011;66428;47.322;9.432;2024-01-16T07:17:03;11.32;;;3.97;;
77362;SDS011;66428;47.322;9.432;2024-01-16T07:19:36;9.52;;;4.57;;
77362;SDS011;66428;47.322;9.432;2024-01-16T07:22:04;11.60;;;4.47;;
77362;SDS011;66428;47.322;9.432;2024-01-16T07:24:32;7.18;;;4.05;;
77362;SDS011;66428;47.322;9.432;2024-01-16T07:26:59;4.93;;;3.80;;
77362;SDS011;66428;47.322;9.432;2024-01-16T07:29:30;9.25;;;4.55;;
77362;SDS011;66428;47.322;9.432;2024-01-16T07:31:59;11.73;;;6.72;;
77362;SDS011;66428;47.322;9.432;2024-01-16T07:34:26;11.50;;;4.72;;
77362;SDS011;66428;47.322;9.432;2024-01-16T07:36:57;16.80;;;5.45;;
77362;SDS011;66428;47.322;9.432;2024-01-16T07:39:24;10.52;;;4.25;;
77362;SDS011;66428;47.322;9.432;2024-01-16T07:41:54;9.60;;;4.13;;
77362;SDS011;66428;47.322;9.432;2024-01-16T07:44:23;9.23;;;3.72;;
77362;SDS011;66428;47.322;9.432;2024-01-16T07:46:53;6.55;;;3.40;;
77362;SDS011;66428;47.322;9.432;2024-01-16T07:49:22;10.07;;;4.15;;
77362;SDS011;66428;47.322;9.432;2024-01-16T07:51:52;9.57;;;4.03;;
77362;SDS011;66428;47.322;9.432;2024-01-16T07:54:23;7.05;;;3.30;;
77362;SDS011;66428;47.322;9.432;2024-01-16T07:56:52;7.93;;;3.90;;
77362;SDS011;66428;47.322;9.432;2024-01-16T07:59:22;9.55;;;3.33;;
77362;SDS011;66428;47.322;9.432;2024-01-16T08:01:50;7.85;;;3.65;;
77362;SDS011;66428;47.322;9.432;2024-01-16T08:04:18;11.50;;;4.75;;
77362;SDS011;66428;47.322;9.432;2024-01-16T08:06:47;7.07;;;3.72;;
77362;SDS011;66428;47.322;9.432;2024-01-16T08:09:15;6.25;;;3.42;;
77362;SDS011;66428;47.322;9.432;2024-01-16T08:11:44;9.60;;;3.83;;
77362;SDS011;66428;47.322;9.432;2024-01-16T08:14:11;4.40;;;2.65;;
77362;SDS011;66428;47.322;9.432;2024-01-16T08:16:42;5.72;;;2.63;;
77362;SDS011;66428;47.322;9.432;2024-01-16T08:19:13;4.32;;;2.75;;
77362;SDS011;66428;47.322;9.432;2024-01-16T08:21:41;5.13;;;2.60;;
77362;SDS011;66428;47.322;9.432;2024-01-16T08:24:10;6.32;;;3.08;;
77362;SDS011;66428;47.322;9.432;2024-01-16T08:26:37;14.77;;;5.47;;
77362;SDS011;66428;47.322;9.432;2024-01-16T08:29:05;8.85;;;4.03;;
77362;SDS011;66428;47.322;9.432;2024-01-16T08:31:33;5.90;;;3.80;;
77362;SDS011;66428;47.322;9.432;2024-01-16T08:34:01;10.43;;;3.90;;
77362;SDS011;66428;47.322;9.432;2024-01-16T08:36:29;7.82;;;3.55;;
77362;SDS011;66428;47.322;9.432;2024-01-16T08:38:57;6.95;;;3.75;;
77362;SDS011;66428;47.322;9.432;2024-01-16T08:41:26;8.25;;;4.40;;
77362;SDS011;66428;47.322;9.432;2024-01-16T08:43:54;9.57;;;4.25;;
77362;SDS011;66428;47.322;9.432;2024-01-16T08:46:22;6.93;;;3.22;;
77362;SDS011;66428;47.322;9.432;2024-01-16T08:48:50;7.78;;;3.40;;
77362;SDS011;66428;47.322;9.432;2024-01-16T08:51:18;9.02;;;3.65;;
77362;SDS011;66428;47.322;9.432;2024-01-16T08:53:46;8.40;;;3.58;;
77362;SDS011;66428;47.322;9.432;2024-01-16T08:56:13;7.63;;;3.63;;
77362;SDS011;66428;47.322;9.432;2024-01-16T08:58:46;8.18;;;4.18;;
77362;SDS011;66428;47.322;9.432;2024-01-16T09:01:16;7.43;;;3.67;;
77362;SDS011;66428;47.322;9.432;2024-01-16T09:03:44;6.43;;;3.25;;
77362;SDS011;66428;47.322;9.432;2024-01-16T09:06:12;5.97;;;3.13;;
77362;SDS011;66428;47.322;9.432;2024-01-16T09:08:40;6.22;;;3.30;;
77362;SDS011;66428;47.322;9.432;2024-01-16T09:11:10;7.68;;;3.78;;
77362;SDS011;66428;47.322;9.432;2024-01-16T09:13:40;11.23;;;3.20;;
77362;SDS011;66428;47.322;9.432;2024-01-16T09:16:09;7.82;;;3.80;;
77362;SDS011;66428;47.322;9.432;2024-01-16T09:18:37;6.65;;;3.78;;
77362;SDS011;66428;47.322;9.432;2024-01-16T09:21:05;7.97;;;3.95;;
77362;SDS011;66428;47.322;9.432;2024-01-16T09:23:35;11.05;;;4.53;;
77362;SDS011;66428;47.322;9.432;2024-01-16T09:26:03;7.47;;;3.97;;
77362;SDS011;66428;47.322;9.432;2024-01-16T09:28:33;6.93;;;3.55;;
77362;SDS011;66428;47.322;9.432;2024-01-16T09:31:01;5.82;;;3.63;;
77362;SDS011;66428;47.322;9.432;2024-01-16T09:33:34;12.63;;;5.00;;
77362;SDS011;66428;47.322;9.432;2024-01-16T09:36:02;7.90;;;4.57;;
77362;SDS011;66428;47.322;9.432;2024-01-16T09:38:30;10.90;;;4.63;;
77362;SDS011;66428;47.322;9.432;2024-01-16T09:41:00;10.98;;;3.80;;
77362;SDS011;66428;47.322;9.432;2024-01-16T09:43:29;6.00;;;2.88;;
77362;SDS011;66428;47.322;9.432;2024-01-16T09:45:57;5.93;;;3.53;;
77362;SDS011;66428;47.322;9.432;2024-01-16T09:48:29;6.18;;;3.30;;
77362;SDS011;66428;47.322;9.432;2024-01-16T09:51:02;6.28;;;3.72;;
77362;SDS011;66428;47.322;9.432;2024-01-16T09:53:30;7.68;;;3.90;;
77362;SDS011;66428;47.322;9.432;2024-01-16T09:56:00;6.20;;;3.42;;
77362;SDS011;66428;47.322;9.432;2024-01-16T09:58:29;7.20;;;4.07;;
77362;SDS011;66428;47.322;9.432;2024-01-16T10:00:58;9.75;;;5.25;;
77362;SDS011;66428;47.322;9.432;2024-01-16T10:03:26;10.68;;;4.55;;
77362;SDS011;66428;47.322;9.432;2024-01-16T10:05:58;9.73;;;4.57;;
77362;SDS011;66428;47.322;9.432;2024-01-16T10:08:29;10.80;;;4.10;;
77362;SDS011;66428;47.322;9.432;2024-01-16T10:10:58;8.75;;;4.18;;
77362;SDS011;66428;47.322;9.432;2024-01-16T10:13:26;9.88;;;4.80;;
77362;SDS011;66428;47.322;9.432;2024-01-16T10:15:53;8.80;;;3.85;;
77362;SDS011;66428;47.322;9.432;2024-01-16T10:18:22;9.93;;;4.03;;
77362;SDS011;66428;47.322;9.432;2024-01-16T10:20:51;9.82;;;4.63;;
77362;SDS011;66428;47.322;9.432;2024-01-16T10:23:23;13.23;;;5.50;;
77362;SDS011;66428;47.322;9.432;2024-01-16T10:26:09;8.30;;;4.43;;
77362;SDS011;66428;47.322;9.432;2024-01-16T10:28:37;11.52;;;4.95;;
77362;SDS011;66428;47.322;9.432;2024-01-16T10:31:06;8.60;;;4.05;;
77362;SDS011;66428;47.322;9.432;2024-01-16T10:33:37;6.38;;;3.50;;
77362;SDS011;66428;47.322;9.432;2024-01-16T10:36:09;5.20;;;2.97;;
77362;SDS011;66428;47.322;9.432;2024-01-16T10:38:38;8.90;;;3.80;;
77362;SDS011;66428;47.322;9.432;2024-01-16T10:41:08;5.28;;;3.08;;
77362;SDS011;66428;47.322;9.432;2024-01-16T10:43:37;9.77;;;4.80;;
77362;SDS011;66428;47.322;9.432;2024-01-16T10:46:08;19.55;;;6.80;;
77362;SDS011;66428;47.322;9.432;2024-01-16T10:48:36;8.23;;;4.57;;
77362;SDS011;66428;47.322;9.432;2024-01-16T10:51:04;8.43;;;3.95;;
77362;SDS011;66428;47.322;9.432;2024-01-16T10:53:33;4.63;;;2.47;;
77362;SDS011;66428;47.322;9.432;2024-01-16T10:56:04;8.38;;;3.03;;
77362;SDS011;66428;47.322;9.432;2024-01-16T10:58:37;5.97;;;3.20;;
77362;SDS011;66428;47.322;9.432;2024-01-16T11:01:07;7.10;;;3.38;;
77362;SDS011;66428;47.322;9.432;2024-01-16T11:03:40;4.10;;;2.30;;
77362;SDS011;66428;47.322;9.432;2024-01-16T11:06:08;5.00;;;2.90;;
77362;SDS011;66428;47.322;9.432;2024-01-16T11:08:37;5.15;;;3.03;;
77362;SDS011;66428;47.322;9.432;2024-01-16T11:11:08;7.18;;;2.70;;
77362;SDS011;66428;47.322;9.432;2024-01-16T11:13:41;5.28;;;2.55;;
77362;SDS011;66428;47.322;9.432;2024-01-16T11:16:11;4.20;;;1.98;;
77362;SDS011;66428;47.322;9.432;2024-01-16T11:18:39;3.83;;;2.15;;
77362;SDS011;66428;47.322;9.432;2024-01-16T11:21:09;3.30;;;1.98;;
77362;SDS011;66428;47.322;9.432;2024-01-16T11:23:43;3.55;;;2.50;;
77362;SDS011;66428;47.322;9.432;2024-01-16T11:26:26;5.43;;;2.72;;
77362;SDS011;66428;47.322;9.432;2024-01-16T11:28:58;8.40;;;2.65;;
77362;SDS011;66428;47.322;9.432;2024-01-16T11:31:29;4.05;;;2.40;;
77362;SDS011;66428;47.322;9.432;2024-01-16T11:33:58;4.70;;;2.92;;
77362;SDS011;66428;47.322;9.432;2024-01-16T11:36:43;5.07;;;2.88;;
77362;SDS011;66428;47.322;9.432;2024-01-16T11:39:18;5.43;;;3.28;;
77362;SDS011;66428;47.322;9.432;2024-01-16T11:41:53;8.35;;;3.47;;
77362;SDS011;66428;47.322;9.432;2024-01-16T11:44:42;6.90;;;3.50;;
77362;SDS011;66428;47.322;9.432;2024-01-16T11:47:17;8.35;;;3.83;;
77362;SDS011;66428;47.322;9.432;2024-01-16T11:49:50;5.70;;;3.55;;
77362;SDS011;66428;47.322;9.432;2024-01-16T11:57:53;3.53;;;2.13;;
77362;SDS011;66428;47.322;9.432;2024-01-16T12:00:25;6.22;;;3.00;;
77362;SDS011;66428;47.322;9.432;2024-01-16T12:02:57;6.93;;;3.58;;
77362;SDS011;66428;47.322;9.432;2024-01-16T12:05:28;5.53;;;3.13;;
77362;SDS011;66428;47.322;9.432;2024-01-16T12:07:56;8.23;;;3.15;;
77362;SDS011;66428;47.322;9.432;2024-01-16T12:10:24;5.65;;;3.33;;
77362;SDS011;66428;47.322;9.432;2024-01-16T12:12:56;5.57;;;3.47;;
77362;SDS011;66428;47.322;9.432;2024-01-16T12:15:31;5.70;;;3.17;;
77362;SDS011;66428;47.322;9.432;2024-01-16T12:17:59;4.70;;;2.47;;
77362;SDS011;66428;47.322;9.432;2024-01-16T12:20:30;5.70;;;3.20;;
77362;SDS011;66428;47.322;9.432;2024-01-16T12:23:02;5.40;;;3.35;;
77362;SDS011;66428;47.322;9.432;2024-01-16T12:25:30;4.65;;;2.95;;
77362;SDS011;66428;47.322;9.432;2024-01-16T12:28:19;5.55;;;3.13;;
77362;SDS011;66428;47.322;9.432;2024-01-16T12:30:54;6.95;;;2.75;;
77362;SDS011;66428;47.322;9.432;2024-01-16T12:33:22;5.57;;;3.05;;
77362;SDS011;66428;47.322;9.432;2024-01-16T12:35:50;7.47;;;3.78;;
77362;SDS011;66428;47.322;9.432;2024-01-16T12:38:27;6.15;;;3.40;;
77362;SDS011;66428;47.322;9.432;2024-01-16T12:40:55;5.00;;;3.10;;
77362;SDS011;66428;47.322;9.432;2024-01-16T12:43:23;7.32;;;3.10;;
77362;SDS011;66428;47.322;9.432;2024-01-16T12:45:55;6.22;;;3.30;;
77362;SDS011;66428;47.322;9.432;2024-01-16T12:48:24;6.28;;;2.83;;
77362;SDS011;66428;47.322;9.432;2024-01-16T12:50:58;6.85;;;3.35;;
77362;SDS011;66428;47.322;9.432;2024-01-16T12:53:26;7.97;;;3.90;;
77362;SDS011;66428;47.322;9.432;2024-01-16T12:55:57;5.07;;;3.15;;
77362;SDS011;66428;47.322;9.432;2024-01-16T12:58:31;5.78;;;3.40;;
77362;SDS011;66428;47.322;9.432;2024-01-16T13:03:54;7.47;;;3.83;;
77362;SDS011;66428;47.322;9.432;2024-01-16T13:06:22;9.10;;;4.00;;
77362;SDS011;66428;47.322;9.432;2024-01-16T13:08:50;6.75;;;3.97;;
77362;SDS011;66428;47.322;9.432;2024-01-16T13:11:21;10.43;;;4.00;;
77362;SDS011;66428;47.322;9.432;2024-01-16T13:14:06;7.25;;;3.50;;
77362;SDS011;66428;47.322;9.432;2024-01-16T13:16:34;8.82;;;3.83;;
77362;SDS011;66428;47.322;9.432;2024-01-16T13:19:03;4.93;;;3.17;;
77362;SDS011;66428;47.322;9.432;2024-01-16T13:21:35;9.40;;;4.07;;
77362;SDS011;66428;47.322;9.432;2024-01-16T13:24:03;8.35;;;3.72;;
77362;SDS011;66428;47.322;9.432;2024-01-16T13:26:31;8.88;;;3.65;;
77362;SDS011;66428;47.322;9.432;2024-01-16T13:28:59;9.18;;;3.58;;
77362;SDS011;66428;47.322;9.432;2024-01-16T13:31:27;4.88;;;2.88;;
77362;SDS011;66428;47.322;9.432;2024-01-16T13:33:55;6.60;;;3.15;;
77362;SDS011;66428;47.322;9.432;2024-01-16T13:36:24;5.72;;;3.35;;
77362;SDS011;66428;47.322;9.432;2024-01-16T13:39:12;6.43;;;3.00;;
77362;SDS011;66428;47.322;9.432;2024-01-16T13:41:42;6.22;;;3.40;;
77362;SDS011;66428;47.322;9.432;2024-01-16T13:44:10;6.85;;;3.60;;
77362;SDS011;66428;47.322;9.432;2024-01-16T13:46:37;5.90;;;3.17;;
77362;SDS011;66428;47.322;9.432;2024-01-16T13:49:25;5.47;;;2.65;;
77362;SDS011;66428;47.322;9.432;2024-01-16T13:51:54;6.47;;;3.63;;
77362;SDS011;66428;47.322;9.432;2024-01-16T13:54:22;6.82;;;3.50;;
77362;SDS011;66428;47.322;9.432;2024-01-16T13:56:52;6.95;;;3.15;;
77362;SDS011;66428;47.322;9.432;2024-01-16T13:59:35;7.70;;;3.78;;
77362;SDS011;66428;47.322;9.432;2024-01-16T14:02:03;26.75;;;10.30;;
77362;SDS011;66428;47.322;9.432;2024-01-16T14:04:32;9.80;;;4.25;;
77362;SDS011;66428;47.322;9.432;2024-01-16T14:07:01;6.43;;;2.83;;
77362;SDS011;66428;47.322;9.432;2024-01-16T14:09:41;7.65;;;3.08;;
77362;SDS011;66428;47.322;9.432;2024-01-16T14:12:11;6.10;;;3.20;;
77362;SDS011;66428;47.322;9.432;2024-01-16T14:14:40;9.55;;;4.03;;
77362;SDS011;66428;47.322;9.432;2024-01-16T14:17:11;5.07;;;3.25;;
77362;SDS011;66428;47.322;9.432;2024-01-16T14:19:39;4.93;;;2.47;;
77362;SDS011;66428;47.322;9.432;2024-01-16T14:22:10;4.35;;;2.55;;
77362;SDS011;66428;47.322;9.432;2024-01-16T14:24:40;6.35;;;2.85;;
77362;SDS011;66428;47.322;9.432;2024-01-16T14:27:10;6.32;;;3.38;;
77362;SDS011;66428;47.322;9.432;2024-01-16T14:29:38;7.45;;;2.85;;
77362;SDS011;66428;47.322;9.432;2024-01-16T14:32:09;6.07;;;2.78;;
77362;SDS011;66428;47.322;9.432;2024-01-16T14:34:37;5.53;;;2.38;;
77362;SDS011;66428;47.322;9.432;2024-01-16T14:37:07;8.70;;;3.45;;
77362;SDS011;66428;47.322;9.432;2024-01-16T14:39:39;6.70;;;3.38;;
77362;SDS011;66428;47.322;9.432;2024-01-16T14:42:07;6.70;;;3.30;;
77362;SDS011;66428;47.322;9.432;2024-01-16T14:44:38;6.35;;;3.13;;
77362;SDS011;66428;47.322;9.432;2024-01-16T14:47:06;6.90;;;3.30;;
77362;SDS011;66428;47.322;9.432;2024-01-16T14:49:37;5.95;;;2.90;;
77362;SDS011;66428;47.322;9.432;2024-01-16T14:52:05;5.63;;;3.67;;
77362;SDS011;66428;47.322;9.432;2024-01-16T14:54:34;6.13;;;3.03;;
77362;SDS011;66428;47.322;9.432;2024-01-16T14:57:05;7.32;;;3.33;;
77362;SDS011;66428;47.322;9.432;2024-01-16T14:59:33;5.70;;;2.92;;
77362;SDS011;66428;47.322;9.432;2024-01-16T15:02:01;8.13;;;3.50;;
77362;SDS011;66428;47.322;9.432;2024-01-16T15:04:47;5.47;;;2.78;;
77362;SDS011;66428;47.322;9.432;2024-01-16T15:07:15;6.20;;;3.65;;